createdAt,value
2022-08-15T00:00:31.469Z,0.00
2022-08-15T00:01:31.545Z,0.00
2022-08-15T00:02:50.450Z,0.00
2022-08-15T00:04:01.302Z,0.00
2022-08-15T00:04:34.437Z,0.00
2022-08-15T00:05:32.514Z,0.00
2022-08-15T00:06:39.649Z,0.00
2022-08-15T00:07:45.815Z,0.00
2022-08-15T00:08:50.803Z,0.00
2022-08-15T00:09:55.602Z,0.00
2022-08-15T00:11:00.719Z,0.00
2022-08-15T00:11:32.327Z,0.00
2022-08-15T00:12:35.693Z,0.00
2022-08-15T00:13:41.170Z,0.00
2022-08-15T00:14:32.510Z,0.00
2022-08-15T00:15:34.511Z,0.00
2022-08-15T00:16:32.886Z,0.00
2022-08-15T00:17:47.978Z,0.00
2022-08-15T00:18:32.242Z,0.00
2022-08-15T00:19:32.339Z,0.00
2022-08-15T00:20:33.207Z,0.00
2022-08-15T00:21:31.228Z,0.00
2022-08-15T00:22:34.359Z,0.00
2022-08-15T00:23:31.198Z,0.00
2022-08-15T00:24:31.171Z,0.00
2022-08-15T00:25:31.161Z,0.00
2022-08-15T00:26:55.378Z,0.00
2022-08-15T00:27:32.330Z,0.00
2022-08-15T00:28:36.181Z,0.00
2022-08-15T00:29:38.134Z,0.00
2022-08-15T00:30:50.453Z,0.00
2022-08-15T00:31:41.088Z,0.00
2022-08-15T00:33:02.264Z,0.00
2022-08-15T00:33:32.207Z,0.00
2022-08-15T00:34:38.379Z,0.00
2022-08-15T00:35:38.286Z,0.00
2022-08-15T00:36:52.829Z,0.00
2022-08-15T00:37:32.030Z,0.00
2022-08-15T00:38:39.078Z,0.00
2022-08-15T00:39:32.919Z,0.00
2022-08-15T00:40:31.675Z,0.00
2022-08-15T00:41:35.491Z,0.00
2022-08-15T00:42:31.991Z,0.00
2022-08-15T00:43:31.225Z,0.00
2022-08-15T00:45:00.392Z,0.00
2022-08-15T00:45:33.094Z,0.00
2022-08-15T00:46:30.938Z,0.00
2022-08-15T00:47:38.745Z,0.00
2022-08-15T00:48:31.905Z,0.00
2022-08-15T00:49:30.906Z,0.00
2022-08-15T00:50:34.546Z,0.00
2022-08-15T00:51:30.924Z,0.00
2022-08-15T00:52:31.721Z,0.00
2022-08-15T00:53:31.849Z,0.00
2022-08-15T00:54:56.377Z,0.00
2022-08-15T00:55:31.831Z,0.00
2022-08-15T00:56:31.066Z,0.00
2022-08-15T00:57:57.989Z,0.00
2022-08-15T00:58:34.266Z,0.00
2022-08-15T00:59:31.905Z,0.00
2022-08-15T01:00:34.477Z,0.00
2022-08-15T01:01:30.807Z,0.00
2022-08-15T01:02:35.502Z,0.00
2022-08-15T01:03:31.741Z,0.00
2022-08-15T01:04:35.325Z,0.00
2022-08-15T01:05:31.739Z,0.00
2022-08-15T01:06:31.876Z,0.00
2022-08-15T01:07:30.698Z,0.00
2022-08-15T01:08:39.036Z,0.00
2022-08-15T01:09:31.676Z,0.00
2022-08-15T01:10:36.003Z,0.00
2022-08-15T01:11:33.669Z,0.00
2022-08-15T01:12:30.642Z,0.00
2022-08-15T01:14:05.687Z,0.00
2022-08-15T01:14:56.952Z,0.00
2022-08-15T01:15:42.289Z,0.00
2022-08-15T01:16:34.991Z,0.00
2022-08-15T01:17:31.588Z,0.00
2022-08-15T01:18:35.061Z,0.00
2022-08-15T01:19:30.562Z,0.00
2022-08-15T01:20:31.064Z,0.00
2022-08-15T01:21:30.559Z,0.00
2022-08-15T01:22:30.544Z,0.00
2022-08-15T01:23:39.417Z,0.00
2022-08-15T01:25:16.135Z,0.00
2022-08-15T01:26:41.029Z,0.00
2022-08-15T01:26:42.531Z,0.00
2022-08-15T01:27:34.746Z,0.00
2022-08-15T01:28:31.956Z,0.00
2022-08-15T01:29:30.448Z,0.00
2022-08-15T01:31:01.021Z,0.00
2022-08-15T01:31:31.441Z,0.00
2022-08-15T01:32:30.423Z,0.00
2022-08-15T01:33:30.404Z,0.00
2022-08-15T01:34:30.399Z,0.00
2022-08-15T01:35:30.380Z,0.00
2022-08-15T01:36:32.925Z,0.00
2022-08-15T01:37:57.905Z,0.00
2022-08-15T01:38:38.374Z,0.00
2022-08-15T01:39:34.280Z,0.00
2022-08-15T01:40:51.374Z,0.00
2022-08-15T01:41:36.755Z,0.00
2022-08-15T01:42:33.474Z,0.00
2022-08-15T01:43:31.348Z,0.00
2022-08-15T01:44:31.368Z,0.00
2022-08-15T01:45:30.994Z,0.00
2022-08-15T01:46:30.266Z,0.00
2022-08-15T01:47:30.262Z,0.00
2022-08-15T01:48:30.241Z,0.00
2022-08-15T01:49:31.255Z,0.00
2022-08-15T01:50:30.898Z,0.00
2022-08-15T01:51:30.208Z,0.00
2022-08-15T01:52:59.248Z,0.00
2022-08-15T01:53:31.193Z,0.00
2022-08-15T01:54:58.666Z,0.00
2022-08-15T01:55:32.639Z,0.00
2022-08-15T01:56:35.831Z,0.00
2022-08-15T01:57:31.166Z,0.00
2022-08-15T01:58:30.958Z,0.00
2022-08-15T01:59:32.738Z,0.00
2022-08-15T02:00:30.107Z,0.00
2022-08-15T02:01:35.035Z,0.00
2022-08-15T02:02:42.306Z,0.00
2022-08-15T02:04:44.968Z,0.00
2022-08-15T02:05:44.503Z,0.00
2022-08-15T02:06:43.509Z,0.00
2022-08-15T02:07:48.865Z,0.00
2022-08-15T02:08:43.482Z,0.00
2022-08-15T02:09:50.937Z,0.00
2022-08-15T02:10:43.503Z,0.00
2022-08-15T02:12:00.392Z,0.00
2022-08-15T02:13:03.968Z,0.00
2022-08-15T02:13:44.431Z,0.00
2022-08-15T02:14:43.415Z,0.00
2022-08-15T02:15:44.078Z,0.00
2022-08-15T02:16:43.380Z,0.00
2022-08-15T02:17:43.369Z,0.00
2022-08-15T02:18:43.377Z,0.00
2022-08-15T02:19:45.795Z,0.00
2022-08-15T02:20:43.338Z,0.00
2022-08-15T02:21:43.384Z,0.00
2022-08-15T02:22:43.314Z,0.00
2022-08-15T02:23:43.327Z,0.00
2022-08-15T02:24:43.292Z,0.00
2022-08-15T02:25:43.277Z,0.00
2022-08-15T02:26:43.268Z,0.00
2022-08-15T02:27:43.255Z,0.00
2022-08-15T02:28:44.509Z,0.00
2022-08-15T02:29:52.868Z,0.00
2022-08-15T02:30:44.228Z,0.00
2022-08-15T02:31:43.281Z,0.00
2022-08-15T02:32:43.259Z,0.00
2022-08-15T02:33:47.160Z,0.00
2022-08-15T02:34:45.559Z,0.00
2022-08-15T02:35:44.165Z,0.00
2022-08-15T02:36:53.078Z,0.00
2022-08-15T02:37:44.141Z,0.00
2022-08-15T02:38:47.192Z,0.00
2022-08-15T02:39:43.204Z,0.00
2022-08-15T02:40:44.645Z,0.00
2022-08-15T02:41:43.411Z,0.00
2022-08-15T02:42:47.716Z,0.00
2022-08-15T02:43:43.088Z,0.00
2022-08-15T02:44:43.073Z,0.00
2022-08-15T02:45:57.078Z,0.00
2022-08-15T02:47:03.465Z,0.00
2022-08-15T02:47:44.035Z,0.00
2022-08-15T02:48:57.182Z,0.00
2022-08-15T02:49:49.337Z,0.00
2022-08-15T02:50:44.016Z,0.00
2022-08-15T02:51:53.402Z,0.00
2022-08-15T02:52:44.001Z,0.00
2022-08-15T02:53:43.986Z,0.00
2022-08-15T02:54:59.439Z,0.00
2022-08-15T02:55:43.955Z,0.00
2022-08-15T02:56:42.954Z,0.00
2022-08-15T02:57:58.400Z,0.00
2022-08-15T02:58:43.910Z,0.00
2022-08-15T02:59:42.899Z,0.00
2022-08-15T03:00:42.916Z,0.00
2022-08-15T03:01:43.377Z,0.00
2022-08-15T03:02:42.883Z,0.00
2022-08-15T03:03:42.869Z,0.00
2022-08-15T03:04:42.844Z,0.00
2022-08-15T03:05:43.206Z,0.00
2022-08-15T03:06:42.832Z,0.00
2022-08-15T03:07:42.827Z,0.00
2022-08-15T03:08:44.959Z,0.00
2022-08-15T03:09:56.113Z,0.00
2022-08-15T03:10:43.776Z,0.00
2022-08-15T03:11:56.586Z,0.00
2022-08-15T03:12:43.772Z,0.00
2022-08-15T03:13:45.357Z,0.00
2022-08-15T03:14:42.737Z,0.00
2022-08-15T03:15:42.723Z,0.00
2022-08-15T03:16:42.753Z,0.00
2022-08-15T03:17:42.697Z,0.00
2022-08-15T03:18:42.688Z,0.00
2022-08-15T03:19:45.467Z,0.00
2022-08-15T03:20:44.939Z,0.00
2022-08-15T03:21:45.584Z,0.00
2022-08-15T03:22:52.404Z,0.00
2022-08-15T03:23:43.634Z,0.00
2022-08-15T03:24:42.627Z,0.00
2022-08-15T03:25:49.073Z,0.00
2022-08-15T03:26:46.828Z,0.00
2022-08-15T03:27:42.611Z,0.00
2022-08-15T03:29:00.773Z,0.00
2022-08-15T03:29:52.333Z,0.00
2022-08-15T03:30:43.548Z,0.00
2022-08-15T03:31:45.653Z,0.00
2022-08-15T03:32:42.540Z,0.00
2022-08-15T03:33:56.002Z,0.00
2022-08-15T03:34:43.503Z,0.00
2022-08-15T03:35:42.497Z,0.00
2022-08-15T03:36:42.483Z,0.00
2022-08-15T03:37:43.940Z,0.00
2022-08-15T03:38:51.789Z,0.00
2022-08-15T03:39:43.519Z,0.00
2022-08-15T03:40:44.279Z,0.00
2022-08-15T03:41:42.425Z,0.00
2022-08-15T03:42:42.438Z,0.00
2022-08-15T03:43:43.431Z,0.00
2022-08-15T03:44:42.392Z,0.00
2022-08-15T03:45:42.471Z,0.00
2022-08-15T03:46:42.373Z,0.00
2022-08-15T03:47:42.381Z,0.00
2022-08-15T03:48:54.838Z,0.00
2022-08-15T03:50:27.783Z,4.00
2022-08-15T03:50:46.311Z,0.00
2022-08-15T03:51:43.402Z,0.00
2022-08-15T03:52:42.394Z,4.00
2022-08-15T03:53:44.729Z,0.00
2022-08-15T03:54:48.836Z,4.00
2022-08-15T03:55:43.594Z,0.00
2022-08-15T03:56:42.257Z,0.00
2022-08-15T03:58:03.257Z,0.00
2022-08-15T03:58:43.244Z,0.00
2022-08-15T03:59:42.226Z,0.00
2022-08-15T04:00:42.223Z,0.00
2022-08-15T04:01:43.360Z,8.00
2022-08-15T04:02:42.373Z,4.00
2022-08-15T04:03:42.194Z,4.00
2022-08-15T04:04:42.179Z,4.00
2022-08-15T04:05:42.181Z,4.00
2022-08-15T04:06:42.144Z,4.00
2022-08-15T04:07:42.464Z,8.00
2022-08-15T04:09:02.959Z,8.00
2022-08-15T04:09:43.582Z,8.00
2022-08-15T04:10:43.598Z,8.00
2022-08-15T04:11:42.094Z,12.00
2022-08-15T04:12:46.292Z,8.00
2022-08-15T04:13:44.982Z,4.00
2022-08-15T04:14:43.082Z,16.00
2022-08-15T04:15:42.066Z,16.00
2022-08-15T04:17:03.493Z,12.00
2022-08-15T04:17:57.928Z,12.00
2022-08-15T04:18:44.608Z,20.00
2022-08-15T04:19:48.157Z,16.00
2022-08-15T04:20:43.151Z,16.00
2022-08-15T04:21:50.529Z,20.00
2022-08-15T04:22:52.816Z,20.00
2022-08-15T04:23:42.956Z,16.00
2022-08-15T04:24:41.960Z,16.00
2022-08-15T04:25:53.630Z,24.00
2022-08-15T04:26:42.931Z,24.00
2022-08-15T04:27:47.760Z,20.00
2022-08-15T04:28:54.352Z,28.00
2022-08-15T04:29:42.897Z,32.00
2022-08-15T04:30:41.886Z,28.00
2022-08-15T04:31:41.873Z,28.00
2022-08-15T04:32:59.460Z,36.00
2022-08-15T04:34:01.065Z,36.00
2022-08-15T04:34:51.823Z,28.00
2022-08-15T04:35:42.851Z,36.00
2022-08-15T04:36:41.926Z,44.00
2022-08-15T04:37:41.803Z,40.00
2022-08-15T04:38:41.791Z,36.00
2022-08-15T04:39:41.819Z,44.00
2022-08-15T04:41:16.656Z,52.00
2022-08-15T04:41:50.330Z,48.00
2022-08-15T04:42:45.447Z,48.00
2022-08-15T04:43:42.736Z,56.00
2022-08-15T04:44:41.723Z,56.00
2022-08-15T04:45:41.726Z,52.00
2022-08-15T04:46:41.710Z,56.00
2022-08-15T04:47:41.693Z,72.00
2022-08-15T04:48:41.688Z,64.00
2022-08-15T04:49:41.666Z,64.00
2022-08-15T04:50:41.667Z,80.00
2022-08-15T04:51:41.645Z,84.00
2022-08-15T04:52:41.634Z,72.00
2022-08-15T04:53:41.622Z,84.00
2022-08-15T04:54:57.457Z,100.00
2022-08-15T04:55:44.900Z,88.00
2022-08-15T04:56:47.697Z,76.00
2022-08-15T04:57:44.254Z,96.00
2022-08-15T04:59:05.650Z,116.00
2022-08-15T05:00:05.734Z,96.00
2022-08-15T05:00:43.248Z,92.00
2022-08-15T05:02:04.698Z,116.00
2022-08-15T05:03:00.743Z,116.00
2022-08-15T05:03:42.510Z,100.00
2022-08-15T05:04:41.500Z,104.00
2022-08-15T05:05:42.499Z,132.00
2022-08-15T05:06:41.487Z,124.00
2022-08-15T05:07:44.088Z,104.00
2022-08-15T05:08:45.566Z,136.00
2022-08-15T05:10:00.544Z,160.00
2022-08-15T05:10:42.445Z,136.00
2022-08-15T05:12:01.101Z,128.00
2022-08-15T05:12:42.415Z,160.00
2022-08-15T05:13:41.401Z,156.00
2022-08-15T05:14:50.226Z,136.00
2022-08-15T05:15:53.402Z,160.00
2022-08-15T05:16:42.395Z,192.00
2022-08-15T05:17:55.278Z,176.00
2022-08-15T05:18:46.364Z,168.00
2022-08-15T05:19:41.330Z,204.00
2022-08-15T05:20:41.331Z,212.00
2022-08-15T05:21:43.636Z,188.00
2022-08-15T05:22:41.310Z,212.00
2022-08-15T05:23:42.766Z,244.00
2022-08-15T05:24:41.295Z,232.00
2022-08-15T05:25:41.786Z,208.00
2022-08-15T05:26:57.186Z,244.00
2022-08-15T05:27:44.726Z,268.00
2022-08-15T05:28:41.228Z,224.00
2022-08-15T05:29:41.574Z,220.00
2022-08-15T05:30:41.202Z,256.00
2022-08-15T05:31:41.198Z,244.00
2022-08-15T05:32:41.195Z,224.00
2022-08-15T05:33:55.371Z,248.00
2022-08-15T05:34:43.286Z,268.00
2022-08-15T05:35:41.159Z,236.00
2022-08-15T05:36:41.136Z,240.00
2022-08-15T05:37:43.751Z,264.00
2022-08-15T05:38:41.134Z,240.00
2022-08-15T05:39:42.851Z,232.00
2022-08-15T05:40:41.093Z,272.00
2022-08-15T05:41:41.090Z,260.00
2022-08-15T05:42:43.527Z,228.00
2022-08-15T05:43:52.925Z,280.00
2022-08-15T05:44:46.466Z,316.00
2022-08-15T05:45:43.247Z,280.00
2022-08-15T05:46:41.026Z,324.00
2022-08-15T05:47:44.879Z,372.00
2022-08-15T05:48:42.014Z,352.00
2022-08-15T05:49:41.018Z,376.00
2022-08-15T05:50:40.977Z,424.00
2022-08-15T05:51:51.321Z,404.00
2022-08-15T05:52:48.093Z,424.00
2022-08-15T05:53:40.980Z,488.00
2022-08-15T05:54:40.945Z,528.00
2022-08-15T05:55:41.335Z,496.00
2022-08-15T05:56:40.921Z,552.00
2022-08-15T05:57:40.911Z,604.00
2022-08-15T05:58:44.442Z,572.00
2022-08-15T05:59:43.779Z,644.00
2022-08-15T06:00:41.895Z,728.00
2022-08-15T06:01:40.973Z,744.00
2022-08-15T06:02:41.516Z,756.00
2022-08-15T06:03:41.854Z,848.00
2022-08-15T06:04:40.828Z,904.00
2022-08-15T06:05:40.853Z,992.00
2022-08-15T06:06:46.158Z,1436.00
2022-08-15T06:07:52.476Z,2844.00
2022-08-15T06:08:50.079Z,3056.00
2022-08-15T06:09:42.753Z,1736.00
2022-08-15T06:10:40.757Z,4628.00
2022-08-15T06:11:46.318Z,4924.00
2022-08-15T06:12:40.737Z,5876.00
2022-08-15T06:13:40.737Z,3812.00
2022-08-15T06:14:40.714Z,1956.00
2022-08-15T06:15:41.705Z,1548.00
2022-08-15T06:16:47.500Z,1460.00
2022-08-15T06:17:41.689Z,1608.00
2022-08-15T06:18:40.672Z,1580.00
2022-08-15T06:19:40.661Z,1820.00
2022-08-15T06:20:47.882Z,2128.00
2022-08-15T06:21:42.746Z,2548.00
2022-08-15T06:22:43.474Z,3016.00
2022-08-15T06:23:40.616Z,3028.00
2022-08-15T06:24:44.680Z,3344.00
2022-08-15T06:25:40.629Z,6004.00
2022-08-15T06:26:42.355Z,7488.00
2022-08-15T06:27:49.509Z,2844.00
2022-08-15T06:28:52.470Z,3600.00
2022-08-15T06:29:41.547Z,5476.00
2022-08-15T06:30:40.546Z,9908.00
2022-08-15T06:31:41.610Z,3576.00
2022-08-15T06:32:40.528Z,2416.00
2022-08-15T06:33:56.910Z,1980.00
2022-08-15T06:34:52.006Z,2540.00
2022-08-15T06:35:41.481Z,5772.00
2022-08-15T06:36:42.694Z,4620.00
2022-08-15T06:38:01.085Z,2992.00
2022-08-15T06:38:43.535Z,2696.00
2022-08-15T06:39:40.484Z,2688.00
2022-08-15T06:40:40.429Z,2784.00
2022-08-15T06:41:49.315Z,3412.00
2022-08-15T06:42:41.436Z,3344.00
2022-08-15T06:43:40.404Z,2944.00
2022-08-15T06:44:40.385Z,3192.00
2022-08-15T06:45:47.589Z,3416.00
2022-08-15T06:46:49.289Z,6060.00
2022-08-15T06:47:41.353Z,6740.00
2022-08-15T06:48:58.533Z,6144.00
2022-08-15T06:49:41.333Z,8848.00
2022-08-15T06:50:40.323Z,8584.00
2022-08-15T06:51:45.081Z,6872.00
2022-08-15T06:52:41.395Z,6568.00
2022-08-15T06:53:40.295Z,6696.00
2022-08-15T06:54:41.012Z,6592.00
2022-08-15T06:55:40.259Z,7156.00
2022-08-15T06:56:40.247Z,6840.00
2022-08-15T06:57:40.249Z,8060.00
2022-08-15T06:58:54.672Z,6616.00
2022-08-15T06:59:56.752Z,7368.00
2022-08-15T07:00:45.517Z,6052.00
2022-08-15T07:02:12.071Z,4664.00
2022-08-15T07:02:41.266Z,5308.00
2022-08-15T07:03:40.174Z,5188.00
2022-08-15T07:04:40.169Z,4892.00
2022-08-15T07:05:42.484Z,3652.00
2022-08-15T07:06:40.134Z,3980.00
2022-08-15T07:07:41.124Z,7548.00
2022-08-15T07:08:40.113Z,14208.00
2022-08-15T07:09:40.110Z,6816.00
2022-08-15T07:10:40.748Z,8552.00
2022-08-15T07:11:54.568Z,3064.00
2022-08-15T07:12:41.066Z,2848.00
2022-08-15T07:13:46.260Z,3228.00
2022-08-15T07:14:43.981Z,2720.00
2022-08-15T07:15:40.059Z,2496.00
2022-08-15T07:16:40.030Z,2808.00
2022-08-15T07:17:40.015Z,2532.00
2022-08-15T07:18:40.009Z,2560.00
2022-08-15T07:19:40.004Z,2564.00
2022-08-15T07:20:41.070Z,2692.00
2022-08-15T07:21:53.128Z,3164.00
2022-08-15T07:22:40.955Z,3580.00
2022-08-15T07:23:40.974Z,4412.00
2022-08-15T07:24:40.263Z,4644.00
2022-08-15T07:25:39.922Z,4780.00
2022-08-15T07:26:39.919Z,4544.00
2022-08-15T07:27:39.902Z,4720.00
2022-08-15T07:28:43.401Z,4876.00
2022-08-15T07:29:41.446Z,5008.00
2022-08-15T07:30:39.879Z,4688.00
2022-08-15T07:32:00.018Z,4856.00
2022-08-15T07:32:40.842Z,4692.00
2022-08-15T07:33:44.396Z,5148.00
2022-08-15T07:34:39.823Z,4660.00
2022-08-15T07:35:39.811Z,4752.00
2022-08-15T07:36:39.816Z,4628.00
2022-08-15T07:37:39.969Z,4816.00
2022-08-15T07:38:40.546Z,4820.00
2022-08-15T07:39:39.844Z,5168.00
2022-08-15T07:40:40.292Z,4816.00
2022-08-15T07:41:40.452Z,4944.00
2022-08-15T07:42:59.925Z,4784.00
2022-08-15T07:43:40.734Z,5088.00
2022-08-15T07:44:39.738Z,4860.00
2022-08-15T07:45:40.761Z,5060.00
2022-08-15T07:46:39.701Z,4836.00
2022-08-15T07:47:42.378Z,5076.00
2022-08-15T07:48:43.623Z,4132.00
2022-08-15T07:49:40.665Z,3616.00
2022-08-15T07:50:43.075Z,3180.00
2022-08-15T07:51:41.925Z,2864.00
2022-08-15T07:52:44.117Z,3204.00
2022-08-15T07:53:39.615Z,3556.00
2022-08-15T07:56:40.490Z,2688.00
2022-08-15T07:56:46.200Z,2488.00
2022-08-15T08:03:49.051Z,2228.00
2022-08-15T08:04:49.038Z,2116.00
2022-08-15T08:05:49.028Z,1944.00
2022-08-15T08:06:51.311Z,1724.00
2022-08-15T08:07:51.843Z,1664.00
2022-08-15T08:08:48.999Z,1444.00
2022-08-15T08:09:48.999Z,1452.00
2022-08-15T08:10:48.975Z,1256.00
2022-08-15T08:11:48.956Z,1308.00
2022-08-15T08:12:56.850Z,1288.00
2022-08-15T08:13:53.920Z,1296.00
2022-08-15T08:14:49.100Z,1304.00
2022-08-15T08:15:50.336Z,1316.00
2022-08-15T08:16:49.586Z,1304.00
2022-08-15T08:17:48.915Z,1348.00
2022-08-15T08:18:49.894Z,1284.00
2022-08-15T08:19:48.871Z,1248.00
2022-08-15T08:20:48.859Z,1264.00
2022-08-15T08:21:50.212Z,1440.00
2022-08-15T08:22:48.835Z,1424.00
2022-08-15T08:23:49.610Z,1508.00
2022-08-15T08:24:48.833Z,1544.00
2022-08-15T08:26:06.336Z,1452.00
2022-08-15T08:26:49.801Z,1512.00
2022-08-15T08:27:52.907Z,1444.00
2022-08-15T08:28:48.785Z,1476.00
2022-08-15T08:29:50.941Z,1456.00
2022-08-15T08:30:48.763Z,1380.00
2022-08-15T08:31:55.255Z,1460.00
2022-08-15T08:32:49.009Z,1372.00
2022-08-15T08:33:48.734Z,1336.00
2022-08-15T08:34:50.219Z,1284.00
2022-08-15T08:35:48.700Z,1156.00
2022-08-15T08:36:48.686Z,1312.00
2022-08-15T08:37:53.987Z,1312.00
2022-08-15T08:39:03.253Z,1260.00
2022-08-15T08:39:53.126Z,1304.00
2022-08-15T08:40:48.719Z,1208.00
2022-08-15T08:41:48.639Z,1264.00
2022-08-15T08:42:53.972Z,1276.00
2022-08-15T08:43:49.633Z,1180.00
2022-08-15T08:44:49.600Z,1252.00
2022-08-15T08:45:51.451Z,1116.00
2022-08-15T08:46:48.587Z,1152.00
2022-08-15T08:47:48.567Z,1056.00
2022-08-15T08:48:48.558Z,1084.00
2022-08-15T08:50:32.173Z,1084.00
2022-08-15T08:50:49.534Z,1024.00
2022-08-15T08:51:48.519Z,1088.00
2022-08-15T08:52:55.431Z,992.00
2022-08-15T08:53:49.508Z,1040.00
2022-08-15T08:55:00.871Z,1032.00
2022-08-15T08:55:50.494Z,1012.00
2022-08-15T08:56:48.483Z,1068.00
2022-08-15T08:57:52.266Z,988.00
2022-08-15T08:58:49.618Z,1048.00
2022-08-15T08:59:48.455Z,996.00
2022-08-15T09:00:48.496Z,1012.00
2022-08-15T09:01:48.522Z,1072.00
2022-08-15T09:02:51.569Z,1028.00
2022-08-15T09:03:50.733Z,1072.00
2022-08-15T09:04:49.704Z,1084.00
2022-08-15T09:05:49.717Z,1056.00
2022-08-15T09:06:48.371Z,1148.00
2022-08-15T09:07:48.352Z,1112.00
2022-08-15T09:08:48.340Z,1148.00
2022-08-15T09:09:48.329Z,1160.00
2022-08-15T09:10:51.132Z,1136.00
2022-08-15T09:11:48.308Z,1184.00
2022-08-15T09:12:49.295Z,1148.00
2022-08-15T09:13:48.281Z,1212.00
2022-08-15T09:15:00.259Z,1248.00
2022-08-15T09:15:54.153Z,1248.00
2022-08-15T09:16:49.254Z,1332.00
2022-08-15T09:17:58.005Z,1416.00
2022-08-15T09:18:49.792Z,1328.00
2022-08-15T09:19:48.218Z,1396.00
2022-08-15T09:20:53.415Z,1300.00
2022-08-15T09:21:50.258Z,1360.00
2022-08-15T09:22:48.387Z,1396.00
2022-08-15T09:23:48.182Z,1276.00
2022-08-15T09:25:06.248Z,1456.00
2022-08-15T09:25:49.821Z,1376.00
2022-08-15T09:26:48.152Z,1436.00
2022-08-15T09:27:54.745Z,1560.00
2022-08-15T09:28:49.127Z,1520.00
2022-08-15T09:29:56.417Z,1620.00
2022-08-15T09:30:49.949Z,1656.00
2022-08-15T09:31:49.092Z,1608.00
2022-08-15T09:32:49.310Z,1720.00
2022-08-15T09:33:48.062Z,1676.00
2022-08-15T09:34:49.086Z,1940.00
2022-08-15T09:35:51.927Z,2896.00
2022-08-15T09:36:48.069Z,2180.00
2022-08-15T09:37:48.182Z,2060.00
2022-08-15T09:38:50.512Z,2128.00
2022-08-15T09:39:48.042Z,1952.00
2022-08-15T09:41:11.964Z,1916.00
2022-08-15T09:41:54.714Z,2016.00
2022-08-15T09:43:06.703Z,1872.00
2022-08-15T09:43:49.275Z,1860.00
2022-08-15T09:44:57.189Z,1676.00
2022-08-15T09:45:48.937Z,1648.00
2022-08-15T09:46:47.923Z,1548.00
2022-08-15T09:47:49.757Z,1568.00
2022-08-15T09:48:48.905Z,1508.00
2022-08-15T09:49:47.894Z,1488.00
2022-08-15T09:50:48.884Z,1596.00
2022-08-15T09:51:50.457Z,1488.00
2022-08-15T09:52:47.889Z,1576.00
2022-08-15T09:53:59.690Z,1524.00
2022-08-15T09:54:51.437Z,1492.00
2022-08-15T09:55:54.062Z,1652.00
2022-08-15T09:56:48.847Z,1600.00
2022-08-15T09:57:49.511Z,1672.00
2022-08-15T09:58:55.482Z,1740.00
2022-08-15T09:59:48.813Z,1716.00
2022-08-15T10:00:47.856Z,1800.00
2022-08-15T10:01:55.496Z,1820.00
2022-08-15T10:02:48.756Z,2068.00
2022-08-15T10:03:48.782Z,2032.00
2022-08-15T10:04:47.727Z,1916.00
2022-08-15T10:05:52.362Z,1956.00
2022-08-15T10:06:48.714Z,1704.00
2022-08-15T10:07:48.220Z,1984.00
2022-08-15T10:08:47.693Z,1964.00
2022-08-15T10:09:49.324Z,2060.00
2022-08-15T10:10:47.672Z,2172.00
2022-08-15T10:12:00.657Z,2036.00
2022-08-15T10:12:48.663Z,2140.00
2022-08-15T10:13:47.630Z,2200.00
2022-08-15T10:14:47.642Z,2288.00
2022-08-15T10:15:51.675Z,2056.00
2022-08-15T10:16:47.619Z,2280.00
2022-08-15T10:17:57.298Z,2544.00
2022-08-15T10:18:48.584Z,2712.00
2022-08-15T10:20:18.162Z,3108.00
2022-08-15T10:20:48.571Z,2752.00
2022-08-15T10:21:47.547Z,3716.00
2022-08-15T10:22:47.532Z,2928.00
2022-08-15T10:23:59.155Z,2848.00
2022-08-15T10:24:52.247Z,2272.00
2022-08-15T10:25:47.554Z,2180.00
2022-08-15T10:26:47.497Z,2152.00
2022-08-15T10:27:48.585Z,1848.00
2022-08-15T10:28:53.911Z,2112.00
2022-08-15T10:29:48.469Z,1848.00
2022-08-15T10:30:51.331Z,2160.00
2022-08-15T10:31:56.416Z,2032.00
2022-08-15T10:32:58.568Z,2168.00
2022-08-15T10:33:58.756Z,2300.00
2022-08-15T10:34:57.511Z,2400.00
2022-08-15T10:35:48.405Z,2560.00
2022-08-15T10:36:47.377Z,2620.00
2022-08-15T10:37:47.907Z,2768.00
2022-08-15T10:38:48.449Z,3096.00
2022-08-15T10:39:47.395Z,2940.00
2022-08-15T10:40:47.343Z,3724.00
2022-08-15T10:41:47.351Z,2820.00
2022-08-15T10:42:47.608Z,2304.00
2022-08-15T10:43:55.407Z,2188.00
2022-08-15T10:44:48.300Z,2236.00
2022-08-15T10:45:47.279Z,2060.00
2022-08-15T10:46:48.278Z,2168.00
2022-08-15T10:48:02.053Z,2048.00
2022-08-15T10:48:50.077Z,2168.00
2022-08-15T10:49:58.591Z,1988.00
2022-08-15T10:50:48.225Z,2120.00
2022-08-15T10:51:47.226Z,2668.00
2022-08-15T10:52:47.202Z,2048.00
2022-08-15T10:53:51.512Z,1980.00
2022-08-15T10:54:48.178Z,2004.00
2022-08-15T10:55:56.450Z,1876.00
2022-08-15T10:57:04.567Z,1808.00
2022-08-15T10:57:48.398Z,1816.00
2022-08-15T10:58:47.136Z,1700.00
2022-08-15T10:59:50.258Z,1724.00
2022-08-15T11:00:50.364Z,1764.00
2022-08-15T11:01:47.216Z,1840.00
2022-08-15T11:03:10.547Z,1884.00
2022-08-15T11:04:48.816Z,1772.00
2022-08-15T11:04:58.613Z,1644.00
2022-08-15T11:05:48.062Z,1540.00
2022-08-15T11:06:47.061Z,1600.00
2022-08-15T11:07:48.237Z,1648.00
2022-08-15T11:08:48.043Z,1504.00
2022-08-15T11:09:47.032Z,1408.00
2022-08-15T11:10:47.007Z,1420.00
2022-08-15T11:11:46.997Z,1428.00
2022-08-15T11:12:46.996Z,1336.00
2022-08-15T11:13:46.978Z,1356.00
2022-08-15T11:14:46.976Z,1140.00
2022-08-15T11:15:46.954Z,1228.00
2022-08-15T11:16:46.942Z,1088.00
2022-08-15T11:17:46.947Z,1072.00
2022-08-15T11:18:58.610Z,1056.00
2022-08-15T11:20:06.826Z,952.00
2022-08-15T11:20:47.895Z,992.00
2022-08-15T11:21:47.929Z,896.00
2022-08-15T11:22:46.897Z,928.00
2022-08-15T11:23:46.868Z,888.00
2022-08-15T11:24:51.083Z,884.00
2022-08-15T11:25:47.844Z,912.00
2022-08-15T11:26:53.394Z,852.00
2022-08-15T11:27:47.822Z,924.00
2022-08-15T11:28:56.235Z,872.00
2022-08-15T11:29:53.613Z,924.00
2022-08-15T11:30:47.798Z,904.00
2022-08-15T11:31:46.785Z,928.00
2022-08-15T11:32:53.022Z,944.00
2022-08-15T11:33:47.756Z,896.00
2022-08-15T11:34:46.745Z,960.00
2022-08-15T11:35:46.782Z,864.00
2022-08-15T11:36:46.727Z,948.00
2022-08-15T11:37:46.717Z,932.00
2022-08-15T11:39:10.313Z,944.00
2022-08-15T11:39:47.759Z,980.00
2022-08-15T11:40:46.700Z,980.00
2022-08-15T11:41:50.258Z,1076.00
2022-08-15T11:42:58.041Z,1032.00
2022-08-15T11:43:47.680Z,1092.00
2022-08-15T11:44:46.636Z,1140.00
2022-08-15T11:45:51.316Z,1140.00
2022-08-15T11:46:47.651Z,1260.00
2022-08-15T11:47:46.745Z,1252.00
2022-08-15T11:48:46.591Z,1364.00
2022-08-15T11:49:46.585Z,1388.00
2022-08-15T11:50:47.569Z,1452.00
2022-08-15T11:52:41.040Z,1528.00
2022-08-15T11:52:50.396Z,1512.00
2022-08-15T11:53:47.177Z,1640.00
2022-08-15T11:54:46.531Z,1608.00
2022-08-15T11:55:47.865Z,1720.00
2022-08-15T11:56:53.537Z,1792.00
2022-08-15T11:57:47.499Z,1744.00
2022-08-15T11:59:04.469Z,1832.00
2022-08-15T11:59:47.476Z,1768.00
2022-08-15T12:00:47.459Z,1832.00
2022-08-15T12:01:46.490Z,1832.00
2022-08-15T12:02:52.196Z,1860.00
2022-08-15T12:05:42.540Z,1956.00
2022-08-15T12:06:08.294Z,2048.00
2022-08-15T12:06:50.676Z,1756.00
2022-08-15T12:07:46.520Z,2004.00
2022-08-15T12:08:46.665Z,1760.00
2022-08-15T12:09:46.380Z,1948.00
2022-08-15T12:10:55.271Z,1852.00
2022-08-15T12:11:52.086Z,1920.00
2022-08-15T12:12:47.374Z,1868.00
2022-08-15T12:13:10.458Z,1932.00
2022-08-15T12:13:46.675Z,1848.00
2022-08-15T12:14:46.309Z,1836.00
2022-08-15T12:15:46.300Z,1864.00
2022-08-15T12:16:52.168Z,2056.00
2022-08-15T12:17:54.526Z,1880.00
2022-08-15T12:18:50.264Z,2100.00
2022-08-15T12:20:25.041Z,2092.00
2022-08-15T12:20:47.248Z,2160.00
2022-08-15T12:21:46.235Z,2092.00
2022-08-15T12:23:00.311Z,2128.00
2022-08-15T12:23:48.180Z,2116.00
2022-08-15T12:24:47.822Z,2148.00
2022-08-15T12:25:54.458Z,2220.00
2022-08-15T12:26:48.783Z,2116.00
2022-08-15T12:27:47.820Z,2268.00
2022-08-15T12:28:52.198Z,2172.00
2022-08-15T12:29:51.126Z,2272.00
2022-08-15T12:30:46.165Z,2184.00
2022-08-15T12:31:46.134Z,2328.00
2022-08-15T12:32:46.117Z,2556.00
2022-08-15T12:33:52.007Z,2568.00
2022-08-15T12:34:47.089Z,2600.00
2022-08-15T12:36:01.260Z,2512.00
2022-08-15T12:37:01.915Z,2544.00
2022-08-15T12:37:47.067Z,2524.00
2022-08-15T12:38:46.059Z,2636.00
2022-08-15T12:39:46.144Z,3132.00
2022-08-15T12:40:53.994Z,3144.00
2022-08-15T12:42:48.425Z,3016.00
2022-08-15T12:42:59.203Z,3020.00